sensor_id;sensor_type;location;lat;lon;timestamp;temperature;humidity
21331;DHT22;10824;51.632;4.950;2022-07-03T00:01:58;19.00;90.50
21331;DHT22;10824;51.632;4.950;2022-07-03T00:04:25;18.90;91.60
21331;DHT22;10824;51.632;4.950;2022-07-03T00:06:54;18.90;91.70
21331;DHT22;10824;51.632;4.950;2022-07-03T00:09:21;18.90;91.50
21331;DHT22;10824;51.632;4.950;2022-07-03T00:11:49;18.80;92.10
21331;DHT22;10824;51.632;4.950;2022-07-03T00:14:16;18.80;91.60
21331;DHT22;10824;51.632;4.950;2022-07-03T00:16:43;18.80;89.80
21331;DHT22;10824;51.632;4.950;2022-07-03T00:19:11;18.80;89.60
21331;DHT22;10824;51.632;4.950;2022-07-03T00:21:50;18.80;89.90
21331;DHT22;10824;51.632;4.950;2022-07-03T00:24:26;18.80;89.70
21331;DHT22;10824;51.632;4.950;2022-07-03T00:26:53;18.80;89.00
21331;DHT22;10824;51.632;4.950;2022-07-03T00:29:22;18.80;87.90
21331;DHT22;10824;51.632;4.950;2022-07-03T00:31:50;18.80;88.00
21331;DHT22;10824;51.632;4.950;2022-07-03T00:34:17;18.70;87.90
21331;DHT22;10824;51.632;4.950;2022-07-03T00:36:46;18.70;88.40
21331;DHT22;10824;51.632;4.950;2022-07-03T00:39:13;18.60;89.60
21331;DHT22;10824;51.632;4.950;2022-07-03T00:41:44;18.50;89.00
21331;DHT22;10824;51.632;4.950;2022-07-03T00:44:12;18.40;90.00
21331;DHT22;10824;51.632;4.950;2022-07-03T00:46:41;18.30;90.70
21331;DHT22;10824;51.632;4.950;2022-07-03T00:49:10;18.20;91.40
21331;DHT22;10824;51.632;4.950;2022-07-03T00:51:39;18.20;91.50
21331;DHT22;10824;51.632;4.950;2022-07-03T00:54:12;18.20;90.80
21331;DHT22;10824;51.632;4.950;2022-07-03T00:56:42;18.20;91.10
21331;DHT22;10824;51.632;4.950;2022-07-03T00:59:13;18.20;91.10
21331;DHT22;10824;51.632;4.950;2022-07-03T01:01:40;18.10;91.10
21331;DHT22;10824;51.632;4.950;2022-07-03T01:04:51;18.10;91.00
21331;DHT22;10824;51.632;4.950;2022-07-03T01:12:33;17.90;92.60
21331;DHT22;10824;51.632;4.950;2022-07-03T01:15:35;17.90;92.60
21331;DHT22;10824;51.632;4.950;2022-07-03T01:20:41;17.80;93.50
21331;DHT22;10824;51.632;4.950;2022-07-03T01:23:30;17.70;93.80
21331;DHT22;10824;51.632;4.950;2022-07-03T01:26:03;17.70;93.50
21331;DHT22;10824;51.632;4.950;2022-07-03T01:28:32;17.60;93.90
21331;DHT22;10824;51.632;4.950;2022-07-03T01:31:02;17.60;93.50
21331;DHT22;10824;51.632;4.950;2022-07-03T01:33:33;17.50;94.20
21331;DHT22;10824;51.632;4.950;2022-07-03T01:38:32;17.40;94.20
21331;DHT22;10824;51.632;4.950;2022-07-03T01:41:01;17.40;94.90
21331;DHT22;10824;51.632;4.950;2022-07-03T01:43:30;17.30;95.10
21331;DHT22;10824;51.632;4.950;2022-07-03T01:45:59;17.30;95.50
21331;DHT22;10824;51.632;4.950;2022-07-03T01:48:29;17.30;95.10
21331;DHT22;10824;51.632;4.950;2022-07-03T01:50:57;17.30;95.00
21331;DHT22;10824;51.632;4.950;2022-07-03T01:53:26;17.20;95.50
21331;DHT22;10824;51.632;4.950;2022-07-03T01:55:59;17.20;95.60
21331;DHT22;10824;51.632;4.950;2022-07-03T01:58:27;17.20;95.60
21331;DHT22;10824;51.632;4.950;2022-07-03T02:01:01;17.10;96.00
21331;DHT22;10824;51.632;4.950;2022-07-03T02:03:34;17.00;96.10
21331;DHT22;10824;51.632;4.950;2022-07-03T02:06:05;17.00;96.40
21331;DHT22;10824;51.632;4.950;2022-07-03T02:08:43;17.00;95.60
21331;DHT22;10824;51.632;4.950;2022-07-03T02:11:36;17.00;95.70
21331;DHT22;10824;51.632;4.950;2022-07-03T02:14:17;17.00;95.90
21331;DHT22;10824;51.632;4.950;2022-07-03T02:16:54;17.00;95.60
21331;DHT22;10824;51.632;4.950;2022-07-03T02:20:03;17.00;95.20
21331;DHT22;10824;51.632;4.950;2022-07-03T02:22:40;17.20;94.10
21331;DHT22;10824;51.632;4.950;2022-07-03T02:25:13;17.30;92.50
21331;DHT22;10824;51.632;4.950;2022-07-03T02:27:44;17.20;92.80
21331;DHT22;10824;51.632;4.950;2022-07-03T02:30:16;17.20;93.30
21331;DHT22;10824;51.632;4.950;2022-07-03T02:32:49;17.30;92.70
21331;DHT22;10824;51.632;4.950;2022-07-03T02:35:28;17.30;92.00
21331;DHT22;10824;51.632;4.950;2022-07-03T02:38:06;17.30;92.40
21331;DHT22;10824;51.632;4.950;2022-07-03T02:40:40;17.20;92.60
21331;DHT22;10824;51.632;4.950;2022-07-03T02:46:10;17.20;92.70
21331;DHT22;10824;51.632;4.950;2022-07-03T02:49:14;17.20;92.80
21331;DHT22;10824;51.632;4.950;2022-07-03T02:51:48;17.20;93.30
21331;DHT22;10824;51.632;4.950;2022-07-03T02:54:17;17.20;93.00
21331;DHT22;10824;51.632;4.950;2022-07-03T03:05:35;17.00;94.10
21331;DHT22;10824;51.632;4.950;2022-07-03T03:11:05;17.00;94.80
21331;DHT22;10824;51.632;4.950;2022-07-03T03:13:34;17.00;95.40
21331;DHT22;10824;51.632;4.950;2022-07-03T03:16:10;17.00;94.60
21331;DHT22;10824;51.632;4.950;2022-07-03T03:18:39;17.00;94.50
21331;DHT22;10824;51.632;4.950;2022-07-03T03:21:09;17.00;94.50
21331;DHT22;10824;51.632;4.950;2022-07-03T03:23:45;16.90;95.40
21331;DHT22;10824;51.632;4.950;2022-07-03T03:26:20;16.90;95.90
21331;DHT22;10824;51.632;4.950;2022-07-03T03:28:48;16.90;95.90
21331;DHT22;10824;51.632;4.950;2022-07-03T03:31:17;16.90;95.90
21331;DHT22;10824;51.632;4.950;2022-07-03T03:33:48;16.90;96.10
21331;DHT22;10824;51.632;4.950;2022-07-03T03:36:20;16.90;96.50
21331;DHT22;10824;51.632;4.950;2022-07-03T03:38:48;16.90;96.50
21331;DHT22;10824;51.632;4.950;2022-07-03T03:41:15;16.90;96.60
21331;DHT22;10824;51.632;4.950;2022-07-03T03:43:44;16.80;97.10
21331;DHT22;10824;51.632;4.950;2022-07-03T03:46:12;16.70;97.40
21331;DHT22;10824;51.632;4.950;2022-07-03T03:48:41;16.80;97.00
21331;DHT22;10824;51.632;4.950;2022-07-03T03:51:08;16.80;96.80
21331;DHT22;10824;51.632;4.950;2022-07-03T03:53:36;16.80;97.00
21331;DHT22;10824;51.632;4.950;2022-07-03T03:56:07;16.70;97.50
21331;DHT22;10824;51.632;4.950;2022-07-03T03:58:36;16.70;97.80
21331;DHT22;10824;51.632;4.950;2022-07-03T04:01:05;16.70;97.30
21331;DHT22;10824;51.632;4.950;2022-07-03T04:03:33;16.80;97.10
21331;DHT22;10824;51.632;4.950;2022-07-03T04:06:01;16.70;97.50
21331;DHT22;10824;51.632;4.950;2022-07-03T04:08:30;16.60;97.80
21331;DHT22;10824;51.632;4.950;2022-07-03T04:10:57;16.60;98.40
21331;DHT22;10824;51.632;4.950;2022-07-03T04:13:24;16.50;98.50
21331;DHT22;10824;51.632;4.950;2022-07-03T04:15:53;16.50;98.30
21331;DHT22;10824;51.632;4.950;2022-07-03T04:18:21;16.60;99.10
21331;DHT22;10824;51.632;4.950;2022-07-03T04:20:48;16.60;98.00
21331;DHT22;10824;51.632;4.950;2022-07-03T04:23:15;16.60;97.60
21331;DHT22;10824;51.632;4.950;2022-07-03T04:25:42;16.60;98.00
21331;DHT22;10824;51.632;4.950;2022-07-03T04:28:09;16.60;98.30
21331;DHT22;10824;51.632;4.950;2022-07-03T04:30:46;16.70;98.30
21331;DHT22;10824;51.632;4.950;2022-07-03T04:33:14;16.80;97.60
21331;DHT22;10824;51.632;4.950;2022-07-03T04:35:41;16.70;97.90
21331;DHT22;10824;51.632;4.950;2022-07-03T04:38:08;16.90;97.70
21331;DHT22;10824;51.632;4.950;2022-07-03T04:40:35;16.80;97.40
21331;DHT22;10824;51.632;4.950;2022-07-03T04:43:02;16.80;96.90
21331;DHT22;10824;51.632;4.950;2022-07-03T04:45:28;16.90;97.30
21331;DHT22;10824;51.632;4.950;2022-07-03T04:47:55;16.90;97.30
21331;DHT22;10824;51.632;4.950;2022-07-03T04:50:23;16.80;97.50
21331;DHT22;10824;51.632;4.950;2022-07-03T04:52:50;16.70;98.30
21331;DHT22;10824;51.632;4.950;2022-07-03T04:55:17;16.70;98.40
21331;DHT22;10824;51.632;4.950;2022-07-03T04:57:44;16.70;98.60
21331;DHT22;10824;51.632;4.950;2022-07-03T05:00:11;16.70;99.10
21331;DHT22;10824;51.632;4.950;2022-07-03T05:02:38;16.60;99.20
21331;DHT22;10824;51.632;4.950;2022-07-03T05:05:06;16.70;99.10
21331;DHT22;10824;51.632;4.950;2022-07-03T05:07:33;16.80;98.70
21331;DHT22;10824;51.632;4.950;2022-07-03T05:10:00;16.80;98.70
21331;DHT22;10824;51.632;4.950;2022-07-03T05:12:27;16.90;98.70
21331;DHT22;10824;51.632;4.950;2022-07-03T05:14:54;17.00;97.70
21331;DHT22;10824;51.632;4.950;2022-07-03T05:17:21;17.00;97.60
21331;DHT22;10824;51.632;4.950;2022-07-03T05:19:48;17.10;97.50
21331;DHT22;10824;51.632;4.950;2022-07-03T05:22:35;17.30;97.00
21331;DHT22;10824;51.632;4.950;2022-07-03T05:25:02;17.30;96.50
21331;DHT22;10824;51.632;4.950;2022-07-03T05:27:29;17.20;96.70
21331;DHT22;10824;51.632;4.950;2022-07-03T05:29:56;17.20;97.40
21331;DHT22;10824;51.632;4.950;2022-07-03T05:32:23;17.10;97.30
21331;DHT22;10824;51.632;4.950;2022-07-03T05:34:49;17.40;98.00
21331;DHT22;10824;51.632;4.950;2022-07-03T05:37:16;17.50;96.50
21331;DHT22;10824;51.632;4.950;2022-07-03T05:39:43;17.70;96.30
21331;DHT22;10824;51.632;4.950;2022-07-03T05:42:11;17.80;96.00
21331;DHT22;10824;51.632;4.950;2022-07-03T05:44:38;17.80;95.60
21331;DHT22;10824;51.632;4.950;2022-07-03T05:47:05;17.80;96.10
21331;DHT22;10824;51.632;4.950;2022-07-03T05:49:32;17.70;96.30
21331;DHT22;10824;51.632;4.950;2022-07-03T05:51:59;17.50;97.30
21331;DHT22;10824;51.632;4.950;2022-07-03T05:54:26;17.40;98.30
21331;DHT22;10824;51.632;4.950;2022-07-03T05:56:53;17.50;99.00
21331;DHT22;10824;51.632;4.950;2022-07-03T05:59:20;17.70;98.50
21331;DHT22;10824;51.632;4.950;2022-07-03T06:01:47;17.90;97.50
21331;DHT22;10824;51.632;4.950;2022-07-03T06:04:14;18.10;96.80
21331;DHT22;10824;51.632;4.950;2022-07-03T06:06:42;18.00;95.90
21331;DHT22;10824;51.632;4.950;2022-07-03T06:09:09;18.10;96.10
21331;DHT22;10824;51.632;4.950;2022-07-03T06:11:42;18.30;96.40
21331;DHT22;10824;51.632;4.950;2022-07-03T06:14:10;18.10;96.00
21331;DHT22;10824;51.632;4.950;2022-07-03T06:16:37;18.20;97.00
21331;DHT22;10824;51.632;4.950;2022-07-03T06:19:04;18.50;96.60
21331;DHT22;10824;51.632;4.950;2022-07-03T06:21:31;18.60;95.60
21331;DHT22;10824;51.632;4.950;2022-07-03T06:24:01;18.50;95.60
21331;DHT22;10824;51.632;4.950;2022-07-03T06:26:28;18.60;95.60
21331;DHT22;10824;51.632;4.950;2022-07-03T06:28:58;18.60;95.30
21331;DHT22;10824;51.632;4.950;2022-07-03T06:31:25;18.60;95.40
21331;DHT22;10824;51.632;4.950;2022-07-03T06:33:53;18.50;96.50
21331;DHT22;10824;51.632;4.950;2022-07-03T06:36:20;18.50;96.40
21331;DHT22;10824;51.632;4.950;2022-07-03T06:38:47;18.50;95.30
21331;DHT22;10824;51.632;4.950;2022-07-03T06:41:14;18.40;97.00
21331;DHT22;10824;51.632;4.950;2022-07-03T06:43:41;18.40;96.50
21331;DHT22;10824;51.632;4.950;2022-07-03T06:46:08;18.30;96.70
21331;DHT22;10824;51.632;4.950;2022-07-03T06:48:35;18.40;96.70
21331;DHT22;10824;51.632;4.950;2022-07-03T06:51:03;18.50;96.10
21331;DHT22;10824;51.632;4.950;2022-07-03T06:53:30;18.40;96.20
21331;DHT22;10824;51.632;4.950;2022-07-03T06:55:57;18.60;96.50
21331;DHT22;10824;51.632;4.950;2022-07-03T06:58:24;18.60;95.30
21331;DHT22;10824;51.632;4.950;2022-07-03T07:00:51;18.70;94.80
21331;DHT22;10824;51.632;4.950;2022-07-03T07:03:18;18.80;95.00
21331;DHT22;10824;51.632;4.950;2022-07-03T07:05:45;19.00;94.50
21331;DHT22;10824;51.632;4.950;2022-07-03T07:08:12;19.20;93.10
21331;DHT22;10824;51.632;4.950;2022-07-03T07:10:40;19.20;93.40
21331;DHT22;10824;51.632;4.950;2022-07-03T07:13:08;19.40;91.20
21331;DHT22;10824;51.632;4.950;2022-07-03T07:15:35;19.30;92.10
21331;DHT22;10824;51.632;4.950;2022-07-03T07:18:02;19.40;90.50
21331;DHT22;10824;51.632;4.950;2022-07-03T07:20:29;19.40;91.40
21331;DHT22;10824;51.632;4.950;2022-07-03T07:22:56;19.40;91.00
21331;DHT22;10824;51.632;4.950;2022-07-03T07:25:23;19.50;91.30
21331;DHT22;10824;51.632;4.950;2022-07-03T07:27:50;19.60;91.10
21331;DHT22;10824;51.632;4.950;2022-07-03T07:30:17;19.70;89.90
21331;DHT22;10824;51.632;4.950;2022-07-03T07:32:45;19.70;88.30
21331;DHT22;10824;51.632;4.950;2022-07-03T07:35:19;19.80;88.90
21331;DHT22;10824;51.632;4.950;2022-07-03T07:37:46;19.70;87.20
21331;DHT22;10824;51.632;4.950;2022-07-03T07:40:15;19.60;89.60
21331;DHT22;10824;51.632;4.950;2022-07-03T07:42:42;19.60;88.70
21331;DHT22;10824;51.632;4.950;2022-07-03T07:45:10;19.90;89.10
21331;DHT22;10824;51.632;4.950;2022-07-03T07:47:37;20.00;88.80
21331;DHT22;10824;51.632;4.950;2022-07-03T07:50:05;20.10;86.90
21331;DHT22;10824;51.632;4.950;2022-07-03T07:52:32;20.10;87.80
21331;DHT22;10824;51.632;4.950;2022-07-03T07:54:59;20.20;87.10
21331;DHT22;10824;51.632;4.950;2022-07-03T07:57:34;20.10;86.40
21331;DHT22;10824;51.632;4.950;2022-07-03T08:00:20;19.90;86.90
21331;DHT22;10824;51.632;4.950;2022-07-03T08:02:49;19.90;87.40
21331;DHT22;10824;51.632;4.950;2022-07-03T08:05:34;20.00;86.90
21331;DHT22;10824;51.632;4.950;2022-07-03T08:10:50;20.20;88.00
21331;DHT22;10824;51.632;4.950;2022-07-03T08:13:19;20.50;87.30
21331;DHT22;10824;51.632;4.950;2022-07-03T08:15:47;20.60;84.40
21331;DHT22;10824;51.632;4.950;2022-07-03T08:18:14;20.80;83.30
21331;DHT22;10824;51.632;4.950;2022-07-03T08:20:41;21.10;82.10
21331;DHT22;10824;51.632;4.950;2022-07-03T08:23:08;21.00;82.00
21331;DHT22;10824;51.632;4.950;2022-07-03T08:25:35;20.80;81.00
21331;DHT22;10824;51.632;4.950;2022-07-03T08:28:02;20.60;79.60
21331;DHT22;10824;51.632;4.950;2022-07-03T08:30:29;20.70;80.80
21331;DHT22;10824;51.632;4.950;2022-07-03T08:32:58;20.80;81.60
21331;DHT22;10824;51.632;4.950;2022-07-03T08:35:26;20.80;80.10
21331;DHT22;10824;51.632;4.950;2022-07-03T08:37:53;21.10;79.00
21331;DHT22;10824;51.632;4.950;2022-07-03T08:40:20;20.90;79.50
21331;DHT22;10824;51.632;4.950;2022-07-03T08:42:56;21.20;78.90
21331;DHT22;10824;51.632;4.950;2022-07-03T08:45:24;21.10;76.50
21331;DHT22;10824;51.632;4.950;2022-07-03T08:47:54;21.50;74.40
21331;DHT22;10824;51.632;4.950;2022-07-03T08:50:21;21.30;73.40
21331;DHT22;10824;51.632;4.950;2022-07-03T08:52:49;21.30;74.50
21331;DHT22;10824;51.632;4.950;2022-07-03T08:55:18;21.30;75.70
21331;DHT22;10824;51.632;4.950;2022-07-03T08:57:47;21.30;74.50
21331;DHT22;10824;51.632;4.950;2022-07-03T09:00:17;21.10;75.60
21331;DHT22;10824;51.632;4.950;2022-07-03T09:02:45;21.50;75.10
21331;DHT22;10824;51.632;4.950;2022-07-03T09:05:15;21.70;71.70
21331;DHT22;10824;51.632;4.950;2022-07-03T09:07:45;21.50;72.20
21331;DHT22;10824;51.632;4.950;2022-07-03T09:10:16;21.80;70.10
21331;DHT22;10824;51.632;4.950;2022-07-03T09:12:45;21.70;69.50
21331;DHT22;10824;51.632;4.950;2022-07-03T09:15:13;21.70;69.90
21331;DHT22;10824;51.632;4.950;2022-07-03T09:17:58;21.90;67.40
21331;DHT22;10824;51.632;4.950;2022-07-03T09:20:34;21.90;67.00
21331;DHT22;10824;51.632;4.950;2022-07-03T09:23:20;22.00;66.40
21331;DHT22;10824;51.632;4.950;2022-07-03T09:28:23;22.30;60.50
21331;DHT22;10824;51.632;4.950;2022-07-03T09:31:01;22.00;64.40
21331;DHT22;10824;51.632;4.950;2022-07-03T09:33:28;22.30;62.40
21331;DHT22;10824;51.632;4.950;2022-07-03T09:35:55;22.40;58.90
21331;DHT22;10824;51.632;4.950;2022-07-03T09:38:23;22.60;55.40
21331;DHT22;10824;51.632;4.950;2022-07-03T09:40:54;22.50;57.60
21331;DHT22;10824;51.632;4.950;2022-07-03T09:43:24;22.70;57.10
21331;DHT22;10824;51.632;4.950;2022-07-03T09:48:33;22.50;55.10
21331;DHT22;10824;51.632;4.950;2022-07-03T09:51:21;22.70;53.20
21331;DHT22;10824;51.632;4.950;2022-07-03T09:53:59;22.70;51.80
21331;DHT22;10824;51.632;4.950;2022-07-03T09:56:36;22.90;52.80
21331;DHT22;10824;51.632;4.950;2022-07-03T10:01:36;22.60;52.10
21331;DHT22;10824;51.632;4.950;2022-07-03T10:04:18;23.10;53.10
21331;DHT22;10824;51.632;4.950;2022-07-03T10:06:51;23.10;51.00
21331;DHT22;10824;51.632;4.950;2022-07-03T10:09:25;23.10;50.30
21331;DHT22;10824;51.632;4.950;2022-07-03T10:11:53;23.00;49.70
21331;DHT22;10824;51.632;4.950;2022-07-03T10:14:24;22.40;48.70
21331;DHT22;10824;51.632;4.950;2022-07-03T10:16:52;22.50;54.90
21331;DHT22;10824;51.632;4.950;2022-07-03T10:19:21;22.60;52.20
21331;DHT22;10824;51.632;4.950;2022-07-03T10:21:53;22.70;52.00
21331;DHT22;10824;51.632;4.950;2022-07-03T10:24:22;22.60;52.00
21331;DHT22;10824;51.632;4.950;2022-07-03T10:26:51;22.50;51.70
21331;DHT22;10824;51.632;4.950;2022-07-03T10:29:21;22.50;53.00
21331;DHT22;10824;51.632;4.950;2022-07-03T10:31:54;22.40;52.10
21331;DHT22;10824;51.632;4.950;2022-07-03T10:34:24;22.30;54.10
21331;DHT22;10824;51.632;4.950;2022-07-03T10:36:59;22.20;53.10
21331;DHT22;10824;51.632;4.950;2022-07-03T10:42:16;22.00;58.10
21331;DHT22;10824;51.632;4.950;2022-07-03T10:45:06;22.80;52.60
21331;DHT22;10824;51.632;4.950;2022-07-03T10:47:44;22.80;51.10
21331;DHT22;10824;51.632;4.950;2022-07-03T10:50:22;23.00;51.00
21331;DHT22;10824;51.632;4.950;2022-07-03T10:52:50;22.80;51.10
21331;DHT22;10824;51.632;4.950;2022-07-03T10:55:19;22.80;50.50
21331;DHT22;10824;51.632;4.950;2022-07-03T10:58:26;23.10;47.80
21331;DHT22;10824;51.632;4.950;2022-07-03T11:00:59;23.50;49.20
21331;DHT22;10824;51.632;4.950;2022-07-03T11:03:52;23.10;48.70
21331;DHT22;10824;51.632;4.950;2022-07-03T11:09:09;23.40;48.70
21331;DHT22;10824;51.632;4.950;2022-07-03T11:11:43;23.40;48.50
21331;DHT22;10824;51.632;4.950;2022-07-03T11:14:26;23.20;47.70
21331;DHT22;10824;51.632;4.950;2022-07-03T11:17:21;23.30;49.50
21331;DHT22;10824;51.632;4.950;2022-07-03T11:19:49;23.20;46.70
21331;DHT22;10824;51.632;4.950;2022-07-03T11:25:25;22.50;44.00
21331;DHT22;10824;51.632;4.950;2022-07-03T11:27:52;22.20;45.10
21331;DHT22;10824;51.632;4.950;2022-07-03T11:30:19;22.20;48.10
21331;DHT22;10824;51.632;4.950;2022-07-03T11:32:50;22.10;50.30
21331;DHT22;10824;51.632;4.950;2022-07-03T11:35:45;21.60;50.80
21331;DHT22;10824;51.632;4.950;2022-07-03T11:38:26;21.50;54.80
21331;DHT22;10824;51.632;4.950;2022-07-03T11:40:56;21.60;53.30
21331;DHT22;10824;51.632;4.950;2022-07-03T11:43:24;21.80;51.50
21331;DHT22;10824;51.632;4.950;2022-07-03T11:45:51;21.80;50.80
21331;DHT22;10824;51.632;4.950;2022-07-03T11:48:22;21.70;50.90
21331;DHT22;10824;51.632;4.950;2022-07-03T11:50:50;21.60;50.40
21331;DHT22;10824;51.632;4.950;2022-07-03T11:53:26;21.70;49.80
21331;DHT22;10824;51.632;4.950;2022-07-03T11:56:11;22.00;49.10
21331;DHT22;10824;51.632;4.950;2022-07-03T11:58:49;22.10;45.70
21331;DHT22;10824;51.632;4.950;2022-07-03T12:04:24;23.40;38.40
21331;DHT22;10824;51.632;4.950;2022-07-03T12:06:56;23.00;34.40
21331;DHT22;10824;51.632;4.950;2022-07-03T12:09:28;23.30;36.60
21331;DHT22;10824;51.632;4.950;2022-07-03T12:17:15;23.70;34.70
21331;DHT22;10824;51.632;4.950;2022-07-03T12:22:29;24.60;33.90
21331;DHT22;10824;51.632;4.950;2022-07-03T12:25:03;24.30;35.40
21331;DHT22;10824;51.632;4.950;2022-07-03T12:27:42;23.90;34.40
21331;DHT22;10824;51.632;4.950;2022-07-03T12:30:21;23.90;36.80
21331;DHT22;10824;51.632;4.950;2022-07-03T12:32:54;23.30;36.30
21331;DHT22;10824;51.632;4.950;2022-07-03T12:35:27;23.10;38.80
21331;DHT22;10824;51.632;4.950;2022-07-03T12:37:55;23.30;37.90
21331;DHT22;10824;51.632;4.950;2022-07-03T12:40:22;23.80;35.70
21331;DHT22;10824;51.632;4.950;2022-07-03T12:42:52;24.00;36.20
21331;DHT22;10824;51.632;4.950;2022-07-03T12:45:25;23.40;37.00
21331;DHT22;10824;51.632;4.950;2022-07-03T12:48:03;23.10;39.30
21331;DHT22;10824;51.632;4.950;2022-07-03T12:50:47;23.10;41.10
21331;DHT22;10824;51.632;4.950;2022-07-03T12:53:29;22.60;44.00
21331;DHT22;10824;51.632;4.950;2022-07-03T12:56:05;22.30;44.90
21331;DHT22;10824;51.632;4.950;2022-07-03T12:58:39;23.00;43.80
21331;DHT22;10824;51.632;4.950;2022-07-03T13:01:32;23.50;39.90
21331;DHT22;10824;51.632;4.950;2022-07-03T13:04:06;23.50;36.50
21331;DHT22;10824;51.632;4.950;2022-07-03T13:06:35;23.30;38.80
21331;DHT22;10824;51.632;4.950;2022-07-03T13:09:05;22.80;38.30
21331;DHT22;10824;51.632;4.950;2022-07-03T13:11:34;23.40;37.90
21331;DHT22;10824;51.632;4.950;2022-07-03T13:14:15;23.70;39.00
21331;DHT22;10824;51.632;4.950;2022-07-03T13:16:53;23.50;39.50
21331;DHT22;10824;51.632;4.950;2022-07-03T13:19:25;23.10;40.90
21331;DHT22;10824;51.632;4.950;2022-07-03T13:21:54;23.60;39.90
21331;DHT22;10824;51.632;4.950;2022-07-03T13:24:23;23.50;40.30
21331;DHT22;10824;51.632;4.950;2022-07-03T13:26:51;23.60;39.30
21331;DHT22;10824;51.632;4.950;2022-07-03T13:29:21;24.00;38.40
21331;DHT22;10824;51.632;4.950;2022-07-03T13:31:48;23.60;38.00
21331;DHT22;10824;51.632;4.950;2022-07-03T13:34:17;23.30;39.80
21331;DHT22;10824;51.632;4.950;2022-07-03T13:36:44;23.70;39.30
21331;DHT22;10824;51.632;4.950;2022-07-03T13:39:12;23.80;39.50
21331;DHT22;10824;51.632;4.950;2022-07-03T13:41:39;23.50;39.90
21331;DHT22;10824;51.632;4.950;2022-07-03T13:44:06;23.90;38.80
21331;DHT22;10824;51.632;4.950;2022-07-03T13:46:34;23.80;36.90
21331;DHT22;10824;51.632;4.950;2022-07-03T13:49:02;23.60;37.90
21331;DHT22;10824;51.632;4.950;2022-07-03T13:51:29;23.60;35.30
21331;DHT22;10824;51.632;4.950;2022-07-03T13:53:56;23.30;36.30
21331;DHT22;10824;51.632;4.950;2022-07-03T13:56:23;23.40;37.70
21331;DHT22;10824;51.632;4.950;2022-07-03T13:58:50;23.50;37.20
21331;DHT22;10824;51.632;4.950;2022-07-03T14:01:19;23.50;35.40
21331;DHT22;10824;51.632;4.950;2022-07-03T14:03:48;23.10;36.90
21331;DHT22;10824;51.632;4.950;2022-07-03T14:06:15;23.00;36.50
21331;DHT22;10824;51.632;4.950;2022-07-03T14:08:42;22.80;36.10
21331;DHT22;10824;51.632;4.950;2022-07-03T14:11:09;22.80;36.40
21331;DHT22;10824;51.632;4.950;2022-07-03T14:13:37;22.40;36.90
21331;DHT22;10824;51.632;4.950;2022-07-03T14:16:04;22.50;37.50
21331;DHT22;10824;51.632;4.950;2022-07-03T14:18:32;22.90;35.90
21331;DHT22;10824;51.632;4.950;2022-07-03T14:20:59;22.40;33.50
21331;DHT22;10824;51.632;4.950;2022-07-03T14:23:26;22.50;35.20
21331;DHT22;10824;51.632;4.950;2022-07-03T14:25:53;22.60;34.80
21331;DHT22;10824;51.632;4.950;2022-07-03T14:28:20;23.20;34.10
21331;DHT22;10824;51.632;4.950;2022-07-03T14:31:06;23.40;34.40
21331;DHT22;10824;51.632;4.950;2022-07-03T14:33:52;22.90;32.80
21331;DHT22;10824;51.632;4.950;2022-07-03T14:36:19;23.30;33.10
21331;DHT22;10824;51.632;4.950;2022-07-03T14:39:06;23.50;32.00
21331;DHT22;10824;51.632;4.950;2022-07-03T14:41:34;23.50;31.40
21331;DHT22;10824;51.632;4.950;2022-07-03T14:44:01;23.40;31.30
21331;DHT22;10824;51.632;4.950;2022-07-03T14:46:28;23.20;32.70
21331;DHT22;10824;51.632;4.950;2022-07-03T14:48:55;23.30;31.70
21331;DHT22;10824;51.632;4.950;2022-07-03T14:51:23;23.30;30.80
21331;DHT22;10824;51.632;4.950;2022-07-03T14:53:52;23.60;32.60
21331;DHT22;10824;51.632;4.950;2022-07-03T14:56:19;23.60;30.30
21331;DHT22;10824;51.632;4.950;2022-07-03T14:58:51;23.70;31.10
21331;DHT22;10824;51.632;4.950;2022-07-03T15:01:20;23.60;30.00
21331;DHT22;10824;51.632;4.950;2022-07-03T15:04:01;23.80;30.30
21331;DHT22;10824;51.632;4.950;2022-07-03T15:06:29;23.00;31.90
21331;DHT22;10824;51.632;4.950;2022-07-03T15:09:02;22.90;31.20
21331;DHT22;10824;51.632;4.950;2022-07-03T15:11:53;23.60;31.50
21331;DHT22;10824;51.632;4.950;2022-07-03T15:14:42;24.00;30.10
21331;DHT22;10824;51.632;4.950;2022-07-03T15:17:14;24.20;29.60
21331;DHT22;10824;51.632;4.950;2022-07-03T15:19:43;24.20;28.20
21331;DHT22;10824;51.632;4.950;2022-07-03T15:22:16;24.10;28.00
21331;DHT22;10824;51.632;4.950;2022-07-03T15:24:52;24.10;27.10
21331;DHT22;10824;51.632;4.950;2022-07-03T15:27:22;24.10;26.80
21331;DHT22;10824;51.632;4.950;2022-07-03T15:29:50;24.20;25.30
21331;DHT22;10824;51.632;4.950;2022-07-03T15:32:18;24.70;25.40
21331;DHT22;10824;51.632;4.950;2022-07-03T15:34:45;24.70;24.80
21331;DHT22;10824;51.632;4.950;2022-07-03T15:40:35;23.90;26.50
21331;DHT22;10824;51.632;4.950;2022-07-03T15:48:52;24.20;27.00
21331;DHT22;10824;51.632;4.950;2022-07-03T15:51:38;23.60;26.90
21331;DHT22;10824;51.632;4.950;2022-07-03T15:54:10;23.40;28.20
21331;DHT22;10824;51.632;4.950;2022-07-03T15:56:42;24.00;26.70
21331;DHT22;10824;51.632;4.950;2022-07-03T15:59:16;23.60;24.70
21331;DHT22;10824;51.632;4.950;2022-07-03T16:02:10;23.60;25.40
21331;DHT22;10824;51.632;4.950;2022-07-03T16:07:29;23.60;27.50
21331;DHT22;10824;51.632;4.950;2022-07-03T16:10:01;23.30;27.10
21331;DHT22;10824;51.632;4.950;2022-07-03T16:12:35;23.30;27.00
21331;DHT22;10824;51.632;4.950;2022-07-03T16:15:05;23.10;25.40
21331;DHT22;10824;51.632;4.950;2022-07-03T16:17:33;23.60;25.40
21331;DHT22;10824;51.632;4.950;2022-07-03T16:20:03;23.80;25.90
21331;DHT22;10824;51.632;4.950;2022-07-03T16:22:34;23.80;23.70
21331;DHT22;10824;51.632;4.950;2022-07-03T16:25:12;24.10;23.90
21331;DHT22;10824;51.632;4.950;2022-07-03T16:27:41;23.50;25.00
21331;DHT22;10824;51.632;4.950;2022-07-03T16:30:10;23.20;26.40
21331;DHT22;10824;51.632;4.950;2022-07-03T16:32:39;23.50;25.20
21331;DHT22;10824;51.632;4.950;2022-07-03T16:35:29;24.20;23.80
21331;DHT22;10824;51.632;4.950;2022-07-03T16:38:03;24.50;22.50
21331;DHT22;10824;51.632;4.950;2022-07-03T16:40:31;24.20;23.20
21331;DHT22;10824;51.632;4.950;2022-07-03T16:43:01;24.20;22.60
21331;DHT22;10824;51.632;4.950;2022-07-03T16:45:34;24.00;22.80
21331;DHT22;10824;51.632;4.950;2022-07-03T16:48:17;24.20;23.70
21331;DHT22;10824;51.632;4.950;2022-07-03T16:50:52;24.30;21.20
21331;DHT22;10824;51.632;4.950;2022-07-03T16:53:21;24.10;20.90
21331;DHT22;10824;51.632;4.950;2022-07-03T16:55:49;23.70;22.10
21331;DHT22;10824;51.632;4.950;2022-07-03T16:58:16;23.30;25.20
21331;DHT22;10824;51.632;4.950;2022-07-03T17:00:44;22.80;24.70
21331;DHT22;10824;51.632;4.950;2022-07-03T17:03:13;22.80;25.80